sensor_id;sensor_type;location;lat;lon;timestamp;P1;durP1;ratioP1;P2;durP2;ratioP2
61483;SDS011;47349;55.640;37.692;2023-04-24T00:00:23;39.25;;;13.02;;
61483;SDS011;47349;55.640;37.692;2023-04-24T00:02:59;30.27;;;12.30;;
61483;SDS011;47349;55.640;37.692;2023-04-24T00:05:40;32.05;;;13.35;;
61483;SDS011;47349;55.640;37.692;2023-04-24T00:08:21;29.60;;;11.95;;
61483;SDS011;47349;55.640;37.692;2023-04-24T00:11:04;28.60;;;12.32;;
61483;SDS011;47349;55.640;37.692;2023-04-24T00:13:45;30.52;;;11.88;;
61483;SDS011;47349;55.640;37.692;2023-04-24T00:16:26;40.47;;;11.52;;
61483;SDS011;47349;55.640;37.692;2023-04-24T00:19:07;27.33;;;11.15;;
61483;SDS011;47349;55.640;37.692;2023-04-24T00:21:48;36.08;;;12.73;;
61483;SDS011;47349;55.640;37.692;2023-04-24T00:24:32;33.20;;;12.30;;
61483;SDS011;47349;55.640;37.692;2023-04-24T00:26:59;28.33;;;11.90;;
61483;SDS011;47349;55.640;37.692;2023-04-24T00:29:41;22.85;;;10.77;;
61483;SDS011;47349;55.640;37.692;2023-04-24T00:32:22;24.60;;;11.43;;
61483;SDS011;47349;55.640;37.692;2023-04-24T00:35:03;20.55;;;10.80;;
61483;SDS011;47349;55.640;37.692;2023-04-24T00:37:46;17.92;;;11.00;;
61483;SDS011;47349;55.640;37.692;2023-04-24T00:40:27;18.50;;;10.25;;
61483;SDS011;47349;55.640;37.692;2023-04-24T00:43:08;22.52;;;11.25;;
61483;SDS011;47349;55.640;37.692;2023-04-24T00:45:50;18.27;;;10.77;;
61483;SDS011;47349;55.640;37.692;2023-04-24T00:48:17;20.33;;;10.77;;
61483;SDS011;47349;55.640;37.692;2023-04-24T00:50:59;20.77;;;11.70;;
61483;SDS011;47349;55.640;37.692;2023-04-24T00:53:40;26.40;;;11.55;;
61483;SDS011;47349;55.640;37.692;2023-04-24T00:56:12;22.38;;;11.90;;
61483;SDS011;47349;55.640;37.692;2023-04-24T00:58:42;23.33;;;12.13;;
61483;SDS011;47349;55.640;37.692;2023-04-24T01:01:27;21.98;;;11.88;;
61483;SDS011;47349;55.640;37.692;2023-04-24T01:03:58;24.63;;;10.95;;
61483;SDS011;47349;55.640;37.692;2023-04-24T01:06:39;22.92;;;11.57;;
61483;SDS011;47349;55.640;37.692;2023-04-24T01:09:23;21.25;;;10.98;;
61483;SDS011;47349;55.640;37.692;2023-04-24T01:11:51;25.65;;;12.25;;
61483;SDS011;47349;55.640;37.692;2023-04-24T01:14:24;23.63;;;11.32;;
61483;SDS011;47349;55.640;37.692;2023-04-24T01:17:05;24.25;;;12.55;;
61483;SDS011;47349;55.640;37.692;2023-04-24T01:19:47;24.95;;;13.10;;
61483;SDS011;47349;55.640;37.692;2023-04-24T01:22:19;21.52;;;11.90;;
61483;SDS011;47349;55.640;37.692;2023-04-24T01:25:01;19.90;;;12.10;;
61483;SDS011;47349;55.640;37.692;2023-04-24T01:27:44;29.33;;;12.80;;
61483;SDS011;47349;55.640;37.692;2023-04-24T01:30:25;26.10;;;13.30;;
61483;SDS011;47349;55.640;37.692;2023-04-24T01:32:53;36.05;;;13.73;;
61483;SDS011;47349;55.640;37.692;2023-04-24T01:35:35;24.20;;;12.80;;
61483;SDS011;47349;55.640;37.692;2023-04-24T01:38:17;25.85;;;13.68;;
61483;SDS011;47349;55.640;37.692;2023-04-24T01:40:59;26.65;;;12.95;;
61483;SDS011;47349;55.640;37.692;2023-04-24T01:43:40;20.50;;;12.68;;
61483;SDS011;47349;55.640;37.692;2023-04-24T01:46:21;22.08;;;12.90;;
61483;SDS011;47349;55.640;37.692;2023-04-24T01:49:03;25.50;;;13.90;;
61483;SDS011;47349;55.640;37.692;2023-04-24T01:51:32;22.35;;;12.80;;
61483;SDS011;47349;55.640;37.692;2023-04-24T01:54:04;26.83;;;14.40;;
61483;SDS011;47349;55.640;37.692;2023-04-24T01:56:45;28.92;;;13.15;;
61483;SDS011;47349;55.640;37.692;2023-04-24T01:59:28;28.90;;;13.10;;
61483;SDS011;47349;55.640;37.692;2023-04-24T02:02:10;26.95;;;12.88;;
61483;SDS011;47349;55.640;37.692;2023-04-24T02:04:39;24.77;;;13.23;;
61483;SDS011;47349;55.640;37.692;2023-04-24T02:07:20;21.42;;;12.32;;
61483;SDS011;47349;55.640;37.692;2023-04-24T02:10:01;23.63;;;13.93;;
61483;SDS011;47349;55.640;37.692;2023-04-24T02:12:42;21.52;;;12.95;;
61483;SDS011;47349;55.640;37.692;2023-04-24T02:15:14;29.85;;;13.77;;
61483;SDS011;47349;55.640;37.692;2023-04-24T02:17:55;21.20;;;12.52;;
61483;SDS011;47349;55.640;37.692;2023-04-24T02:20:36;25.02;;;14.00;;
61483;SDS011;47349;55.640;37.692;2023-04-24T02:23:19;21.10;;;13.20;;
61483;SDS011;47349;55.640;37.692;2023-04-24T02:26:00;31.45;;;14.43;;
61483;SDS011;47349;55.640;37.692;2023-04-24T02:28:43;25.63;;;13.38;;
61483;SDS011;47349;55.640;37.692;2023-04-24T02:31:25;25.55;;;13.85;;
61483;SDS011;47349;55.640;37.692;2023-04-24T02:34:06;24.90;;;13.55;;
61483;SDS011;47349;55.640;37.692;2023-04-24T02:36:47;22.27;;;13.85;;
61483;SDS011;47349;55.640;37.692;2023-04-24T02:39:29;20.70;;;13.38;;
61483;SDS011;47349;55.640;37.692;2023-04-24T02:42:10;25.55;;;14.20;;
61483;SDS011;47349;55.640;37.692;2023-04-24T02:44:51;24.67;;;13.95;;
61483;SDS011;47349;55.640;37.692;2023-04-24T02:47:33;25.67;;;13.52;;
61483;SDS011;47349;55.640;37.692;2023-04-24T02:50:14;23.52;;;13.52;;
61483;SDS011;47349;55.640;37.692;2023-04-24T02:53:19;23.08;;;12.50;;
61483;SDS011;47349;55.640;37.692;2023-04-24T02:56:02;21.33;;;12.52;;
61483;SDS011;47349;55.640;37.692;2023-04-24T02:58:34;25.70;;;13.43;;
61483;SDS011;47349;55.640;37.692;2023-04-24T03:01:12;21.38;;;13.32;;
61483;SDS011;47349;55.640;37.692;2023-04-24T03:03:53;21.13;;;13.60;;
61483;SDS011;47349;55.640;37.692;2023-04-24T03:06:34;21.88;;;13.82;;
61483;SDS011;47349;55.640;37.692;2023-04-24T03:09:17;21.05;;;13.82;;
61483;SDS011;47349;55.640;37.692;2023-04-24T03:12:00;19.33;;;13.93;;
61483;SDS011;47349;55.640;37.692;2023-04-24T03:14:50;25.88;;;13.68;;
61483;SDS011;47349;55.640;37.692;2023-04-24T03:17:33;21.45;;;14.07;;
61483;SDS011;47349;55.640;37.692;2023-04-24T03:20:14;21.02;;;12.50;;
61483;SDS011;47349;55.640;37.692;2023-04-24T03:22:57;21.80;;;14.45;;
61483;SDS011;47349;55.640;37.692;2023-04-24T03:25:39;21.52;;;13.80;;
61483;SDS011;47349;55.640;37.692;2023-04-24T03:28:21;22.20;;;12.88;;
61483;SDS011;47349;55.640;37.692;2023-04-24T03:31:04;21.60;;;13.48;;
61483;SDS011;47349;55.640;37.692;2023-04-24T03:33:45;25.20;;;15.32;;
61483;SDS011;47349;55.640;37.692;2023-04-24T03:36:28;20.20;;;13.82;;
61483;SDS011;47349;55.640;37.692;2023-04-24T03:39:09;23.30;;;13.07;;
61483;SDS011;47349;55.640;37.692;2023-04-24T03:41:55;26.05;;;13.73;;
61483;SDS011;47349;55.640;37.692;2023-04-24T03:44:57;23.15;;;13.82;;
61483;SDS011;47349;55.640;37.692;2023-04-24T03:47:53;26.38;;;14.63;;
61483;SDS011;47349;55.640;37.692;2023-04-24T03:50:34;24.63;;;13.98;;
61483;SDS011;47349;55.640;37.692;2023-04-24T03:56:20;23.05;;;13.55;;
61483;SDS011;47349;55.640;37.692;2023-04-24T03:59:14;18.02;;;12.90;;
61483;SDS011;47349;55.640;37.692;2023-04-24T04:02:11;19.65;;;12.20;;
61483;SDS011;47349;55.640;37.692;2023-04-24T04:04:53;21.52;;;13.13;;
61483;SDS011;47349;55.640;37.692;2023-04-24T04:07:34;22.17;;;14.60;;
61483;SDS011;47349;55.640;37.692;2023-04-24T04:10:28;22.20;;;14.00;;
61483;SDS011;47349;55.640;37.692;2023-04-24T04:13:11;24.45;;;13.45;;
61483;SDS011;47349;55.640;37.692;2023-04-24T04:15:52;24.92;;;13.15;;
61483;SDS011;47349;55.640;37.692;2023-04-24T04:18:34;25.98;;;13.80;;
61483;SDS011;47349;55.640;37.692;2023-04-24T04:21:20;23.88;;;13.55;;
61483;SDS011;47349;55.640;37.692;2023-04-24T04:24:09;21.25;;;13.75;;
61483;SDS011;47349;55.640;37.692;2023-04-24T04:26:51;31.15;;;13.70;;
61483;SDS011;47349;55.640;37.692;2023-04-24T04:29:51;20.58;;;12.55;;
61483;SDS011;47349;55.640;37.692;2023-04-24T04:32:42;25.83;;;13.50;;
61483;SDS011;47349;55.640;37.692;2023-04-24T04:35:46;20.17;;;12.93;;
61483;SDS011;47349;55.640;37.692;2023-04-24T04:38:37;24.33;;;13.35;;
61483;SDS011;47349;55.640;37.692;2023-04-24T04:42:00;26.95;;;13.23;;
61483;SDS011;47349;55.640;37.692;2023-04-24T04:44:43;23.58;;;13.52;;
61483;SDS011;47349;55.640;37.692;2023-04-24T04:47:41;15.10;;;12.23;;
61483;SDS011;47349;55.640;37.692;2023-04-24T04:50:49;21.60;;;12.48;;
61483;SDS011;47349;55.640;37.692;2023-04-24T04:53:32;26.42;;;13.07;;
61483;SDS011;47349;55.640;37.692;2023-04-24T04:56:13;23.48;;;13.73;;
61483;SDS011;47349;55.640;37.692;2023-04-24T04:58:59;21.38;;;13.23;;
61483;SDS011;47349;55.640;37.692;2023-04-24T05:01:44;22.05;;;13.07;;
61483;SDS011;47349;55.640;37.692;2023-04-24T05:04:44;25.65;;;14.43;;
61483;SDS011;47349;55.640;37.692;2023-04-24T05:07:29;22.85;;;13.75;;
61483;SDS011;47349;55.640;37.692;2023-04-24T05:10:37;23.67;;;13.75;;
61483;SDS011;47349;55.640;37.692;2023-04-24T05:13:19;21.35;;;14.20;;
61483;SDS011;47349;55.640;37.692;2023-04-24T05:16:39;21.85;;;12.13;;
61483;SDS011;47349;55.640;37.692;2023-04-24T05:19:24;22.70;;;13.32;;
61483;SDS011;47349;55.640;37.692;2023-04-24T05:22:21;24.02;;;13.93;;
61483;SDS011;47349;55.640;37.692;2023-04-24T05:25:23;21.80;;;13.35;;
61483;SDS011;47349;55.640;37.692;2023-04-24T05:28:19;20.15;;;13.20;;
61483;SDS011;47349;55.640;37.692;2023-04-24T05:31:06;26.88;;;14.93;;
61483;SDS011;47349;55.640;37.692;2023-04-24T05:34:15;22.30;;;14.07;;
61483;SDS011;47349;55.640;37.692;2023-04-24T05:36:57;23.27;;;13.85;;
61483;SDS011;47349;55.640;37.692;2023-04-24T05:40:08;25.33;;;13.23;;
61483;SDS011;47349;55.640;37.692;2023-04-24T05:42:52;22.17;;;14.48;;
61483;SDS011;47349;55.640;37.692;2023-04-24T05:45:58;24.70;;;12.65;;
61483;SDS011;47349;55.640;37.692;2023-04-24T05:48:46;31.42;;;14.02;;
61483;SDS011;47349;55.640;37.692;2023-04-24T05:51:32;25.58;;;14.52;;
61483;SDS011;47349;55.640;37.692;2023-04-24T05:54:41;25.85;;;13.88;;
61483;SDS011;47349;55.640;37.692;2023-04-24T06:00:20;21.85;;;12.80;;
61483;SDS011;47349;55.640;37.692;2023-04-24T06:03:06;26.98;;;13.88;;
61483;SDS011;47349;55.640;37.692;2023-04-24T06:08:53;17.88;;;11.75;;
61483;SDS011;47349;55.640;37.692;2023-04-24T06:12:15;23.85;;;11.70;;
61483;SDS011;47349;55.640;37.692;2023-04-24T06:15:06;20.45;;;11.85;;
61483;SDS011;47349;55.640;37.692;2023-04-24T06:18:11;22.10;;;12.30;;
61483;SDS011;47349;55.640;37.692;2023-04-24T06:20:56;22.20;;;13.23;;
61483;SDS011;47349;55.640;37.692;2023-04-24T06:23:42;21.50;;;11.90;;
61483;SDS011;47349;55.640;37.692;2023-04-24T06:26:24;19.67;;;11.02;;
61483;SDS011;47349;55.640;37.692;2023-04-24T06:29:37;23.40;;;11.98;;
61483;SDS011;47349;55.640;37.692;2023-04-24T06:32:55;20.30;;;10.57;;
61483;SDS011;47349;55.640;37.692;2023-04-24T06:35:57;19.73;;;11.50;;
61483;SDS011;47349;55.640;37.692;2023-04-24T06:38:38;20.02;;;11.73;;
61483;SDS011;47349;55.640;37.692;2023-04-24T06:41:28;15.65;;;11.02;;
61483;SDS011;47349;55.640;37.692;2023-04-24T06:44:18;19.90;;;11.48;;
61483;SDS011;47349;55.640;37.692;2023-04-24T06:46:47;15.95;;;10.98;;
61483;SDS011;47349;55.640;37.692;2023-04-24T06:49:31;16.83;;;10.07;;
61483;SDS011;47349;55.640;37.692;2023-04-24T06:52:13;22.42;;;10.85;;
61483;SDS011;47349;55.640;37.692;2023-04-24T06:55:04;15.30;;;9.75;;
61483;SDS011;47349;55.640;37.692;2023-04-24T06:57:49;16.08;;;10.07;;
61483;SDS011;47349;55.640;37.692;2023-04-24T07:00:50;19.38;;;10.20;;
61483;SDS011;47349;55.640;37.692;2023-04-24T07:03:33;21.52;;;9.65;;
61483;SDS011;47349;55.640;37.692;2023-04-24T07:06:16;17.77;;;9.35;;
61483;SDS011;47349;55.640;37.692;2023-04-24T07:09:08;18.35;;;8.80;;
61483;SDS011;47349;55.640;37.692;2023-04-24T07:11:50;16.05;;;8.75;;
61483;SDS011;47349;55.640;37.692;2023-04-24T07:14:33;12.85;;;8.55;;
61483;SDS011;47349;55.640;37.692;2023-04-24T07:17:19;14.65;;;8.02;;
61483;SDS011;47349;55.640;37.692;2023-04-24T07:20:04;17.13;;;8.27;;
61483;SDS011;47349;55.640;37.692;2023-04-24T07:22:48;13.70;;;8.48;;
61483;SDS011;47349;55.640;37.692;2023-04-24T07:25:32;14.05;;;8.57;;
61483;SDS011;47349;55.640;37.692;2023-04-24T07:28:15;10.02;;;6.28;;
61483;SDS011;47349;55.640;37.692;2023-04-24T07:31:37;12.75;;;7.43;;
61483;SDS011;47349;55.640;37.692;2023-04-24T07:35:01;12.15;;;7.05;;
61483;SDS011;47349;55.640;37.692;2023-04-24T07:38:17;11.82;;;5.95;;
61483;SDS011;47349;55.640;37.692;2023-04-24T07:41:08;11.00;;;6.78;;
61483;SDS011;47349;55.640;37.692;2023-04-24T07:44:10;10.10;;;6.32;;
61483;SDS011;47349;55.640;37.692;2023-04-24T07:47:34;7.60;;;6.45;;
61483;SDS011;47349;55.640;37.692;2023-04-24T07:50:35;11.25;;;6.28;;
61483;SDS011;47349;55.640;37.692;2023-04-24T07:53:22;12.02;;;6.88;;
61483;SDS011;47349;55.640;37.692;2023-04-24T07:56:05;11.85;;;6.70;;
61483;SDS011;47349;55.640;37.692;2023-04-24T07:58:46;9.50;;;6.30;;
61483;SDS011;47349;55.640;37.692;2023-04-24T08:01:28;7.07;;;5.65;;
61483;SDS011;47349;55.640;37.692;2023-04-24T08:04:13;8.52;;;6.03;;
61483;SDS011;47349;55.640;37.692;2023-04-24T08:06:58;10.18;;;6.47;;
61483;SDS011;47349;55.640;37.692;2023-04-24T08:09:41;14.77;;;7.10;;
61483;SDS011;47349;55.640;37.692;2023-04-24T08:12:23;10.23;;;6.22;;
61483;SDS011;47349;55.640;37.692;2023-04-24T08:15:23;7.78;;;5.90;;
61483;SDS011;47349;55.640;37.692;2023-04-24T08:18:23;10.43;;;6.38;;
61483;SDS011;47349;55.640;37.692;2023-04-24T08:21:06;9.50;;;6.38;;
61483;SDS011;47349;55.640;37.692;2023-04-24T08:23:47;10.57;;;6.40;;
61483;SDS011;47349;55.640;37.692;2023-04-24T08:26:29;8.25;;;5.95;;
61483;SDS011;47349;55.640;37.692;2023-04-24T08:29:12;9.20;;;6.47;;
61483;SDS011;47349;55.640;37.692;2023-04-24T08:31:55;8.15;;;5.88;;
61483;SDS011;47349;55.640;37.692;2023-04-24T08:37:37;11.35;;;6.07;;
61483;SDS011;47349;55.640;37.692;2023-04-24T08:40:13;12.23;;;6.15;;
61483;SDS011;47349;55.640;37.692;2023-04-24T08:42:56;7.60;;;5.88;;
61483;SDS011;47349;55.640;37.692;2023-04-24T08:45:42;11.70;;;6.07;;
61483;SDS011;47349;55.640;37.692;2023-04-24T08:48:21;11.68;;;5.93;;
61483;SDS011;47349;55.640;37.692;2023-04-24T08:51:07;7.90;;;5.63;;
61483;SDS011;47349;55.640;37.692;2023-04-24T08:53:49;8.00;;;5.53;;
61483;SDS011;47349;55.640;37.692;2023-04-24T08:56:37;6.97;;;5.53;;
61483;SDS011;47349;55.640;37.692;2023-04-24T08:59:34;7.68;;;6.10;;
61483;SDS011;47349;55.640;37.692;2023-04-24T09:02:33;6.68;;;5.88;;
61483;SDS011;47349;55.640;37.692;2023-04-24T09:05:18;7.03;;;5.80;;
61483;SDS011;47349;55.640;37.692;2023-04-24T09:07:53;9.68;;;6.43;;
61483;SDS011;47349;55.640;37.692;2023-04-24T09:10:36;6.82;;;6.03;;
61483;SDS011;47349;55.640;37.692;2023-04-24T09:13:19;6.13;;;5.45;;
61483;SDS011;47349;55.640;37.692;2023-04-24T09:16:04;7.47;;;5.82;;
61483;SDS011;47349;55.640;37.692;2023-04-24T09:18:47;7.28;;;5.35;;
61483;SDS011;47349;55.640;37.692;2023-04-24T09:21:32;10.30;;;6.18;;
61483;SDS011;47349;55.640;37.692;2023-04-24T09:24:16;7.53;;;5.43;;
61483;SDS011;47349;55.640;37.692;2023-04-24T09:26:58;9.20;;;5.57;;
61483;SDS011;47349;55.640;37.692;2023-04-24T09:29:55;9.82;;;5.90;;
61483;SDS011;47349;55.640;37.692;2023-04-24T09:32:38;9.95;;;6.38;;
61483;SDS011;47349;55.640;37.692;2023-04-24T09:35:22;8.13;;;5.45;;
61483;SDS011;47349;55.640;37.692;2023-04-24T09:38:04;6.55;;;5.75;;
61483;SDS011;47349;55.640;37.692;2023-04-24T09:40:45;8.85;;;5.65;;
61483;SDS011;47349;55.640;37.692;2023-04-24T09:43:26;11.35;;;6.05;;
61483;SDS011;47349;55.640;37.692;2023-04-24T09:46:09;9.77;;;6.03;;
61483;SDS011;47349;55.640;37.692;2023-04-24T09:48:51;7.07;;;5.93;;
61483;SDS011;47349;55.640;37.692;2023-04-24T09:51:34;8.05;;;5.57;;
61483;SDS011;47349;55.640;37.692;2023-04-24T09:54:20;9.02;;;5.63;;
61483;SDS011;47349;55.640;37.692;2023-04-24T09:57:03;13.15;;;6.90;;
61483;SDS011;47349;55.640;37.692;2023-04-24T09:59:30;11.93;;;6.47;;
61483;SDS011;47349;55.640;37.692;2023-04-24T10:01:58;10.23;;;6.63;;
61483;SDS011;47349;55.640;37.692;2023-04-24T10:04:27;6.55;;;5.65;;
61483;SDS011;47349;55.640;37.692;2023-04-24T10:06:55;9.57;;;6.03;;
61483;SDS011;47349;55.640;37.692;2023-04-24T10:09:25;12.90;;;6.35;;
61483;SDS011;47349;55.640;37.692;2023-04-24T10:11:53;12.48;;;6.32;;
61483;SDS011;47349;55.640;37.692;2023-04-24T10:14:22;9.43;;;5.72;;
61483;SDS011;47349;55.640;37.692;2023-04-24T10:16:52;11.60;;;6.20;;
61483;SDS011;47349;55.640;37.692;2023-04-24T10:19:21;9.40;;;5.57;;
61483;SDS011;47349;55.640;37.692;2023-04-24T10:21:49;8.88;;;6.10;;
61483;SDS011;47349;55.640;37.692;2023-04-24T10:24:17;8.93;;;5.40;;
61483;SDS011;47349;55.640;37.692;2023-04-24T10:26:45;9.45;;;5.20;;
61483;SDS011;47349;55.640;37.692;2023-04-24T10:29:15;7.22;;;5.43;;
61483;SDS011;47349;55.640;37.692;2023-04-24T10:31:43;8.10;;;5.07;;
61483;SDS011;47349;55.640;37.692;2023-04-24T10:34:13;8.80;;;5.45;;
61483;SDS011;47349;55.640;37.692;2023-04-24T10:36:45;15.82;;;6.15;;
61483;SDS011;47349;55.640;37.692;2023-04-24T10:39:15;11.88;;;6.00;;
61483;SDS011;47349;55.640;37.692;2023-04-24T10:41:43;8.38;;;5.75;;
61483;SDS011;47349;55.640;37.692;2023-04-24T10:44:12;7.68;;;5.95;;
61483;SDS011;47349;55.640;37.692;2023-04-24T10:46:44;5.97;;;5.15;;
61483;SDS011;47349;55.640;37.692;2023-04-24T10:49:12;6.45;;;5.15;;
61483;SDS011;47349;55.640;37.692;2023-04-24T10:51:50;8.50;;;5.50;;
61483;SDS011;47349;55.640;37.692;2023-04-24T10:54:29;6.88;;;5.05;;
61483;SDS011;47349;55.640;37.692;2023-04-24T11:00:18;8.30;;;5.55;;
61483;SDS011;47349;55.640;37.692;2023-04-24T11:02:47;9.55;;;5.55;;
61483;SDS011;47349;55.640;37.692;2023-04-24T11:05:17;9.15;;;5.50;;
61483;SDS011;47349;55.640;37.692;2023-04-24T11:10:46;6.70;;;5.50;;
61483;SDS011;47349;55.640;37.692;2023-04-24T11:13:28;7.47;;;5.20;;
61483;SDS011;47349;55.640;37.692;2023-04-24T11:21:33;7.00;;;5.40;;
61483;SDS011;47349;55.640;37.692;2023-04-24T11:24:24;6.70;;;4.53;;
61483;SDS011;47349;55.640;37.692;2023-04-24T11:26:57;8.85;;;5.68;;
61483;SDS011;47349;55.640;37.692;2023-04-24T11:29:43;6.68;;;5.85;;
61483;SDS011;47349;55.640;37.692;2023-04-24T11:34:46;7.20;;;5.22;;
61483;SDS011;47349;55.640;37.692;2023-04-24T11:37:17;7.55;;;5.40;;
61483;SDS011;47349;55.640;37.692;2023-04-24T11:39:44;7.32;;;5.40;;
61483;SDS011;47349;55.640;37.692;2023-04-24T11:42:14;7.00;;;5.38;;
61483;SDS011;47349;55.640;37.692;2023-04-24T11:44:42;8.63;;;5.53;;
61483;SDS011;47349;55.640;37.692;2023-04-24T11:47:10;7.40;;;5.50;;
61483;SDS011;47349;55.640;37.692;2023-04-24T11:49:37;6.20;;;4.97;;
61483;SDS011;47349;55.640;37.692;2023-04-24T11:52:04;9.40;;;4.97;;
61483;SDS011;47349;55.640;37.692;2023-04-24T11:54:32;9.10;;;4.88;;
61483;SDS011;47349;55.640;37.692;2023-04-24T11:57:03;7.22;;;4.90;;
61483;SDS011;47349;55.640;37.692;2023-04-24T11:59:35;6.90;;;4.90;;
61483;SDS011;47349;55.640;37.692;2023-04-24T12:02:03;8.68;;;5.38;;
61483;SDS011;47349;55.640;37.692;2023-04-24T12:04:38;8.45;;;5.43;;
61483;SDS011;47349;55.640;37.692;2023-04-24T12:07:09;7.20;;;5.18;;
61483;SDS011;47349;55.640;37.692;2023-04-24T12:09:40;6.15;;;4.57;;
61483;SDS011;47349;55.640;37.692;2023-04-24T12:12:28;9.80;;;4.70;;
61483;SDS011;47349;55.640;37.692;2023-04-24T12:14:56;7.20;;;5.18;;
61483;SDS011;47349;55.640;37.692;2023-04-24T12:17:29;8.68;;;4.70;;
61483;SDS011;47349;55.640;37.692;2023-04-24T12:20:01;7.65;;;4.97;;
61483;SDS011;47349;55.640;37.692;2023-04-24T12:25:12;8.98;;;4.72;;
61483;SDS011;47349;55.640;37.692;2023-04-24T12:27:41;8.15;;;4.70;;
61483;SDS011;47349;55.640;37.692;2023-04-24T12:30:13;11.57;;;6.28;;
61483;SDS011;47349;55.640;37.692;2023-04-24T12:32:48;10.27;;;4.88;;
61483;SDS011;47349;55.640;37.692;2023-04-24T12:35:20;9.73;;;4.85;;
61483;SDS011;47349;55.640;37.692;2023-04-24T12:37:48;6.47;;;4.50;;
61483;SDS011;47349;55.640;37.692;2023-04-24T12:40:16;9.23;;;4.60;;
61483;SDS011;47349;55.640;37.692;2023-04-24T12:42:48;8.52;;;4.80;;
61483;SDS011;47349;55.640;37.692;2023-04-24T12:45:17;5.95;;;4.50;;
61483;SDS011;47349;55.640;37.692;2023-04-24T12:47:45;7.35;;;4.80;;
61483;SDS011;47349;55.640;37.692;2023-04-24T12:50:13;6.90;;;4.95;;
61483;SDS011;47349;55.640;37.692;2023-04-24T12:52:42;7.72;;;5.60;;
61483;SDS011;47349;55.640;37.692;2023-04-24T12:55:10;7.28;;;4.70;;
61483;SDS011;47349;55.640;37.692;2023-04-24T12:57:39;14.10;;;4.78;;
61483;SDS011;47349;55.640;37.692;2023-04-24T13:00:07;7.82;;;4.78;;
61483;SDS011;47349;55.640;37.692;2023-04-24T13:02:35;8.20;;;5.00;;
61483;SDS011;47349;55.640;37.692;2023-04-24T13:05:03;9.38;;;4.43;;
61483;SDS011;47349;55.640;37.692;2023-04-24T13:07:32;10.45;;;4.93;;
61483;SDS011;47349;55.640;37.692;2023-04-24T13:09:59;7.05;;;4.68;;
61483;SDS011;47349;55.640;37.692;2023-04-24T13:12:28;8.35;;;4.93;;
61483;SDS011;47349;55.640;37.692;2023-04-24T13:14:55;6.25;;;5.32;;
61483;SDS011;47349;55.640;37.692;2023-04-24T13:17:22;6.63;;;4.90;;
61483;SDS011;47349;55.640;37.692;2023-04-24T13:19:50;7.22;;;4.57;;
61483;SDS011;47349;55.640;37.692;2023-04-24T13:22:18;8.70;;;4.45;;
61483;SDS011;47349;55.640;37.692;2023-04-24T13:24:45;9.00;;;4.75;;
61483;SDS011;47349;55.640;37.692;2023-04-24T13:27:12;8.05;;;4.78;;
61483;SDS011;47349;55.640;37.692;2023-04-24T13:29:39;11.68;;;8.30;;
61483;SDS011;47349;55.640;37.692;2023-04-24T13:32:19;11.68;;;5.60;;
61483;SDS011;47349;55.640;37.692;2023-04-24T13:34:47;10.30;;;5.18;;
61483;SDS011;47349;55.640;37.692;2023-04-24T13:37:14;9.27;;;5.03;;
61483;SDS011;47349;55.640;37.692;2023-04-24T13:39:41;7.72;;;4.57;;
61483;SDS011;47349;55.640;37.692;2023-04-24T13:42:08;6.80;;;4.40;;
61483;SDS011;47349;55.640;37.692;2023-04-24T13:44:35;5.13;;;4.60;;
61483;SDS011;47349;55.640;37.692;2023-04-24T13:47:02;7.25;;;4.70;;
61483;SDS011;47349;55.640;37.692;2023-04-24T13:49:30;9.45;;;5.07;;
61483;SDS011;47349;55.640;37.692;2023-04-24T13:51:57;10.50;;;5.20;;
61483;SDS011;47349;55.640;37.692;2023-04-24T13:54:24;5.90;;;4.85;;
61483;SDS011;47349;55.640;37.692;2023-04-24T13:56:52;7.03;;;4.97;;
61483;SDS011;47349;55.640;37.692;2023-04-24T13:59:20;10.00;;;5.20;;
61483;SDS011;47349;55.640;37.692;2023-04-24T14:01:50;9.73;;;5.47;;
61483;SDS011;47349;55.640;37.692;2023-04-24T14:04:17;7.95;;;5.40;;
61483;SDS011;47349;55.640;37.692;2023-04-24T14:06:44;8.80;;;5.65;;
61483;SDS011;47349;55.640;37.692;2023-04-24T14:09:11;7.18;;;4.80;;
61483;SDS011;47349;55.640;37.692;2023-04-24T14:11:39;8.05;;;5.20;;
61483;SDS011;47349;55.640;37.692;2023-04-24T14:14:07;8.13;;;5.00;;
61483;SDS011;47349;55.640;37.692;2023-04-24T14:16:34;5.72;;;4.90;;
61483;SDS011;47349;55.640;37.692;2023-04-24T14:19:01;7.43;;;4.78;;
61483;SDS011;47349;55.640;37.692;2023-04-24T14:21:28;8.30;;;4.72;;
61483;SDS011;47349;55.640;37.692;2023-04-24T14:23:56;5.43;;;4.40;;
61483;SDS011;47349;55.640;37.692;2023-04-24T14:26:23;8.60;;;4.82;;
61483;SDS011;47349;55.640;37.692;2023-04-24T14:28:51;6.53;;;4.65;;
61483;SDS011;47349;55.640;37.692;2023-04-24T14:31:32;8.05;;;5.03;;
61483;SDS011;47349;55.640;37.692;2023-04-24T14:34:00;7.82;;;4.72;;
61483;SDS011;47349;55.640;37.692;2023-04-24T14:36:27;7.80;;;4.50;;
61483;SDS011;47349;55.640;37.692;2023-04-24T14:38:54;5.30;;;4.15;;
61483;SDS011;47349;55.640;37.692;2023-04-24T14:41:21;7.95;;;4.50;;
61483;SDS011;47349;55.640;37.692;2023-04-24T14:43:49;6.80;;;4.50;;
61483;SDS011;47349;55.640;37.692;2023-04-24T14:46:16;6.13;;;4.30;;
61483;SDS011;47349;55.640;37.692;2023-04-24T14:48:43;5.20;;;4.15;;
61483;SDS011;47349;55.640;37.692;2023-04-24T14:51:10;5.22;;;4.30;;
61483;SDS011;47349;55.640;37.692;2023-04-24T14:53:37;4.57;;;4.15;;
61483;SDS011;47349;55.640;37.692;2023-04-24T14:56:04;8.63;;;4.30;;
61483;SDS011;47349;55.640;37.692;2023-04-24T14:58:32;7.30;;;4.38;;
61483;SDS011;47349;55.640;37.692;2023-04-24T15:00:59;7.30;;;4.45;;
61483;SDS011;47349;55.640;37.692;2023-04-24T15:03:26;8.07;;;4.40;;
61483;SDS011;47349;55.640;37.692;2023-04-24T15:05:54;6.47;;;4.55;;
61483;SDS011;47349;55.640;37.692;2023-04-24T15:08:22;10.07;;;4.65;;
61483;SDS011;47349;55.640;37.692;2023-04-24T15:10:49;9.15;;;4.53;;
61483;SDS011;47349;55.640;37.692;2023-04-24T15:13:16;9.80;;;4.90;;
61483;SDS011;47349;55.640;37.692;2023-04-24T15:15:43;11.45;;;5.35;;
61483;SDS011;47349;55.640;37.692;2023-04-24T15:18:13;10.52;;;4.65;;
61483;SDS011;47349;55.640;37.692;2023-04-24T15:20:40;12.30;;;5.15;;
61483;SDS011;47349;55.640;37.692;2023-04-24T15:23:08;6.53;;;4.40;;
61483;SDS011;47349;55.640;37.692;2023-04-24T15:25:36;8.00;;;4.43;;
61483;SDS011;47349;55.640;37.692;2023-04-24T15:28:04;11.95;;;4.85;;
61483;SDS011;47349;55.640;37.692;2023-04-24T15:30:32;8.90;;;4.75;;
61483;SDS011;47349;55.640;37.692;2023-04-24T15:32:59;11.48;;;5.32;;
61483;SDS011;47349;55.640;37.692;2023-04-24T15:35:27;16.52;;;10.25;;
61483;SDS011;47349;55.640;37.692;2023-04-24T15:40:47;21.05;;;12.77;;
61483;SDS011;47349;55.640;37.692;2023-04-24T15:43:15;18.52;;;7.25;;
61483;SDS011;47349;55.640;37.692;2023-04-24T15:45:42;15.05;;;8.85;;
61483;SDS011;47349;55.640;37.692;2023-04-24T15:48:10;12.20;;;6.28;;
61483;SDS011;47349;55.640;37.692;2023-04-24T15:50:37;11.23;;;6.10;;
61483;SDS011;47349;55.640;37.692;2023-04-24T15:53:04;9.60;;;5.40;;
61483;SDS011;47349;55.640;37.692;2023-04-24T15:55:32;11.77;;;5.47;;
61483;SDS011;47349;55.640;37.692;2023-04-24T15:57:59;13.18;;;5.32;;
61483;SDS011;47349;55.640;37.692;2023-04-24T16:00:27;10.52;;;5.43;;
61483;SDS011;47349;55.640;37.692;2023-04-24T16:03:00;8.55;;;5.65;;